Last Month

Pierce College

Hourly Data | America/Los_Angeles
as of 10/20/21 1:22 PM PDT
Date & Time Temp Max (°F) Temp Min (°F) RH (%) Dew Pt (°F) Latest Rain (In) Soil Temp (°F) Soil Moist (%) Wind Spd (mph) Wind Dir (°) Wind Gust (mph) Leaf Wet Raw (mV) Net Radiation (W/m²) Evap Pan Max Wind (mph) Evap Pan H2O Max Temp (°F) Evap Pan Level (In)
9/30/21 - 2300 67.7 64.3 21 25.3 0.00 78.1 23.1 0.6 SSE | 156 2.1 263 -66 2.0 57.0 3.7
9/30/21 - 2200 73.6 67.5 17 23.9 0.00 78.3 23.1 1.0 S | 174 4.5 263 -72 2.6 62.0 3.7
9/30/21 - 2100 76.4 73.1 15 24.1 0.00 78.3 23.1 1.6 SSW | 203 4.5 262 -77 3.0 66.4 3.7
9/30/21 - 2000 81.4 76.4 15 26.4 0.00 78.0 23.1 1.5 SW | 234 4.6 262 -86 3.2 76.8 3.7
9/30/21 - 1900 89.9 81.3 10 20.2 0.00 77.7 23.1 2.1 WNW | 282 7.4 262 -86 5.2 87.1 3.8
9/30/21 - 1800 91.2 89.7 5 10.8 0.00 77.4 23.0 2.5 N | 358 11.7 260 2 5.8 92.7 3.8
9/30/21 - 1700 92.4 90.7 5 11.2 0.00 77.1 23.0 3.5 N | 2 9.8 261 160 5.9 95.9 3.8
9/30/21 - 1600 94.2 92.1 5 12.7 0.00 76.6 22.9 2.8 N | 352 8.6 261 302 5.7 97.5 3.8
9/30/21 - 1500 94.6 92.3 5 13.3 0.00 76.2 22.9 2.9 N | 357 9.1 261 400 6.0 99.1 3.8
9/30/21 - 1400 94.0 91.6 6 14.6 0.00 76.1 22.8 2.9 NNE | 13 9.9 260 457 7.4 100.8 3.8
9/30/21 - 1300 93.3 89.1 6 16.2 0.00 75.7 22.7 2.7 NNE | 22 10.6 260 483 8.2 101.7 3.8
9/30/21 - 1200 91.0 87.5 7 15.5 0.00 75.7 22.7 3.9 N | 7 14.2 261 472 5.6 99.6 3.8
9/30/21 - 1100 88.0 84.2 8 19.1 0.00 76.1 22.8 2.1 N | 10 8.4 261 398 5.5 94.0 3.8
9/30/21 - 1000 85.3 78.6 12 24.0 0.00 76.1 22.9 0.7 SSW | 201 4.3 262 287 4.0 81.5 3.7
9/30/21 - 0900 78.6 62.5 32 38.0 0.00 76.5 22.9 0.9 SE | 130 2.5 265 160 1.8 64.1 3.7
9/30/21 - 0800 62.4 51.0 50 38.6 0.00 76.5 23.0 1.3 SE | 145 3.2 270 21 2.8 50.0 3.7
9/30/21 - 0700 51.0 49.0 86 45.7 0.00 76.8 23.0 0.7 S | 170 2.3 310 -5 2.1 44.8 3.7
9/30/21 - 0600 51.0 50.1 90 47.7 0.00 77.1 23.0 1.1 SSE | 160 4.5 333 -8 4.2 45.2 3.7
9/30/21 - 0500 52.0 50.3 89 48.3 0.00 77.4 23.1 0.5 SSE | 168 3.2 361 -8 2.7 43.6 3.7
9/30/21 - 0400 53.0 51.7 87 48.5 0.00 79.5 23.1 0.5 S | 172 2.5 338 -12 1.9 45.3 3.7
9/30/21 - 0300 54.2 52.5 85 49.1 0.00 78.9 23.1 0.5 SSE | 166 1.8 285 -24 1.4 45.6 3.7
9/30/21 - 0200 56.0 54.0 82 49.5 0.00 78.3 23.1 0.4 S | 174 2.1 255 -43 1.1 48.6 3.7
9/30/21 - 0100 57.8 55.6 79 50.1 0.00 77.9 23.2 0.7 SSE | 161 2.1 268 -51 1.6 50.0 3.7
9/30/21 - 0000 58.6 57.3 77 50.7 0.00 78.2 23.2 0.3 SSE | 162 1.4 267 -52 0.7 51.8 3.7
9/29/21 - 2300 60.7 58.5 76 52.1 0.00 77.9 23.2 0.3 SSE | 164 1.5 273 -55 0.6 53.2 3.7
9/29/21 - 2200 62.8 60.2 75 53.5 0.00 77.3 23.2 0.5 SSE | 167 1.8 270 -57 0.8 54.8 3.7
9/29/21 - 2100 65.9 62.7 68 53.6 0.00 76.4 23.2 0.3 S | 176 1.4 270 -60 0.7 58.4 3.7
9/29/21 - 2000 70.6 65.7 60 53.5 0.00 75.8 23.2 0.3 S | 178 2.2 269 -66 1.5 66.5 3.7
9/29/21 - 1900 77.2 70.6 51 54.1 0.00 75.4 23.2 0.5 NE | 37 5.0 268 -63 3.1 77.1 3.7
9/29/21 - 1800 78.7 77.0 43 53.5 0.00 74.8 23.1 1.3 NW | 304 5.5 266 23 5.0 83.5 3.8
9/29/21 - 1700 80.0 78.0 43 55.0 0.00 74.3 23.1 1.7 NNE | 25 5.4 266 168 3.0 87.0 3.8
9/29/21 - 1600 81.5 78.9 42 55.0 0.00 74.1 23.0 3.1 NE | 38 9.2 266 296 7.1 89.2 3.8
9/29/21 - 1500 81.2 79.8 40 54.0 0.00 73.5 23.0 2.4 NE | 53 6.3 266 381 4.1 91.6 3.8
9/29/21 - 1400 83.0 79.0 35 51.2 0.00 74.4 22.9 1.5 NNE | 19 5.4 266 462 4.9 93.2 3.8
9/29/21 - 1300 80.3 75.2 39 50.6 0.00 76.1 22.9 1.7 NNE | 31 5.6 266 486 3.7 93.0 3.8
9/29/21 - 1200 75.7 72.0 45 50.8 0.00 76.1 22.9 1.5 N | 5 4.6 266 449 5.0 89.6 3.7
9/29/21 - 1100 72.3 68.2 52 51.1 0.00 77.7 22.9 1.1 NE | 38 4.3 266 382 2.8 80.5 3.7
9/29/21 - 1000 68.2 63.5 64 53.0 0.00 76.5 22.9 0.8 NW | 325 3.6 267 271 2.8 71.3 3.7
9/29/21 - 0900 64.0 56.8 82 54.2 0.00 77.2 23.0 0.4 NNW | 337 2.0 271 183 1.7 63.9 3.7
9/29/21 - 0800 57.0 52.1 91 51.0 0.00 78.4 23.1 0.2 SSE | 153 1.4 318 37 0.6 52.6 3.7
9/29/21 - 0700 52.7 51.7 91 49.5 0.00 80.2 23.1 0.4 S | 174 1.7 352 -5 0.6 47.0 3.7
9/29/21 - 0600 53.5 51.9 90 49.8 0.00 80.3 23.1 0.2 S | 169 1.4 338 -7 0.0 47.0 3.7
9/29/21 - 0500 54.2 53.0 89 50.3 0.00 79.8 23.1 0.2 S | 170 1.4 318 -10 0.0 47.7 3.7
9/29/21 - 0400 54.6 53.5 88 50.6 0.00 77.8 23.1 0.3 SSE | 166 2.1 278 -19 1.3 49.1 3.7
9/29/21 - 0300 56.2 54.4 85 50.6 0.00 78.0 23.2 0.4 SSE | 162 2.0 260 -37 1.0 51.0 3.7
9/29/21 - 0200 56.8 55.8 83 51.2 0.00 78.3 23.2 0.7 S | 180 3.8 274 -37 2.0 53.9 3.7
9/29/21 - 0100 56.6 55.9 83 51.1 0.00 78.4 23.2 0.6 S | 181 2.0 274 -34 1.2 53.0 3.7
9/29/21 - 0000 57.0 55.8 83 51.0 0.00 78.6 23.2 0.4 S | 180 1.4 274 -38 1.2 52.4 3.7
9/28/21 - 2300 58.0 56.8 81 51.5 0.00 78.8 23.2 0.8 S | 172 2.5 274 -45 1.6 54.6 3.7
9/28/21 - 2200 60.0 56.9 77 51.0 0.00 78.8 23.2 0.7 S | 185 2.5 273 -50 1.9 54.8 3.7
9/28/21 - 2100 61.6 59.9 72 52.1 0.00 78.9 23.3 1.0 S | 190 2.3 272 -53 1.5 56.6 3.7
9/28/21 - 2000 64.1 61.3 69 52.4 0.00 78.9 23.3 1.4 SSW | 195 3.7 271 -59 2.3 63.0 3.7
9/28/21 - 1900 66.8 63.8 64 52.8 0.00 78.8 23.3 2.5 SSW | 192 5.3 270 -48 3.8 70.7 3.7
9/28/21 - 1800 68.8 66.6 59 53.1 0.00 78.8 23.3 3.0 SSE | 167 7.3 268 33 6.0 76.9 3.7
9/28/21 - 1700 69.9 67.8 57 53.1 0.00 78.6 23.3 3.8 SSE | 168 8.0 268 64 6.1 80.7 3.7
9/28/21 - 1600 71.3 69.4 55 53.3 0.00 78.4 23.2 3.8 S | 184 7.8 268 119 6.0 87.7 3.7
9/28/21 - 1500 72.4 69.9 53 53.3 0.00 78.3 23.2 3.0 S | 182 8.1 268 182 5.3 89.0 3.7
9/28/21 - 1400 72.9 70.2 53 53.5 0.00 78.0 23.2 2.7 SSW | 210 7.0 267 250 4.8 92.4 3.8
9/28/21 - 1300 71.4 69.6 56 53.9 0.00 78.2 23.2 2.6 ESE | 117 8.8 268 320 6.3 92.8 3.8
9/28/21 - 1200 70.0 68.4 56 53.0 0.00 78.3 23.2 1.6 NNW | 343 4.3 268 197 4.7 88.6 3.7
9/28/21 - 1100 69.6 66.2 60 53.2 0.00 78.2 23.2 1.4 ENE | 63 3.5 268 200 2.8 86.4 3.7
9/28/21 - 1000 66.7 64.2 65 53.2 0.00 78.4 23.2 1.3 SSE | 164 3.9 269 136 3.0 78.2 3.7
9/28/21 - 0900 64.5 61.8 71 53.9 0.00 78.3 23.3 0.9 S | 184 3.9 270 88 3.4 73.8 3.7
9/28/21 - 0800 62.0 58.8 80 54.0 0.00 78.5 23.3 0.6 S | 177 2.0 271 11 1.4 65.0 3.7
9/28/21 - 0700 59.0 58.0 82 53.2 0.00 78.7 23.3 0.3 S | 183 1.4 273 -25 1.2 56.3 3.7
9/28/21 - 0600 60.2 57.9 80 52.9 0.00 78.7 23.3 0.3 S | 179 1.5 273 -39 1.6 58.5 3.7
9/28/21 - 0500 61.7 60.2 76 53.3 0.00 78.7 23.3 0.2 S | 189 2.0 272 -31 1.3 62.3 3.7
9/28/21 - 0400 61.7 61.0 76 53.6 0.00 79.1 23.3 0.4 SSW | 194 2.0 271 -20 1.2 62.0 3.7
9/28/21 - 0300 61.8 61.2 75 53.6 0.00 79.2 23.4 0.5 S | 184 1.9 271 -26 1.2 61.9 3.7
9/28/21 - 0200 63.2 61.4 73 53.7 0.00 79.4 23.3 0.3 SE | 146 1.4 271 -30 0.8 65.5 3.7
9/28/21 - 0100 63.4 62.9 72 53.9 0.00 79.5 23.4 0.7 SSW | 192 2.9 271 -14 2.5 65.9 3.7
9/28/21 - 0000 63.5 63.2 71 53.9 0.00 79.5 23.4 1.2 S | 177 3.2 271 -14 2.3 66.4 3.7
9/27/21 - 2300 63.7 63.2 71 53.8 0.00 79.6 23.4 1.4 SSW | 198 3.8 271 -14 3.0 66.6 3.7
9/27/21 - 2200 63.8 63.3 71 53.8 0.00 78.2 23.4 1.8 SSW | 207 4.1 270 -14 2.6 66.5 3.7
9/27/21 - 2100 64.3 63.2 71 54.1 0.00 79.7 23.4 2.0 SSW | 203 4.7 270 -14 3.1 67.0 3.7
9/27/21 - 2000 64.9 63.8 71 54.6 0.00 78.4 23.4 2.2 S | 187 5.1 270 -19 4.2 66.8 3.7
9/27/21 - 1900 66.7 64.8 67 54.2 0.00 79.2 23.5 2.4 SSE | 165 5.9 270 -23 4.0 70.4 3.7
9/27/21 - 1800 67.9 66.7 65 55.1 0.00 77.3 23.5 1.7 ESE | 108 4.0 269 17 3.8 73.8 3.8
9/27/21 - 1700 69.8 67.7 63 55.5 0.00 78.4 23.4 2.0 E | 87 6.4 269 124 3.8 79.0 3.8
9/27/21 - 1600 69.5 67.9 63 55.4 0.00 78.3 23.4 2.5 E | 94 6.9 268 240 3.3 81.8 3.8
9/27/21 - 1500 68.7 67.1 65 55.4 0.00 77.0 23.5 1.2 NE | 43 4.4 269 144 2.4 81.9 3.7
9/27/21 - 1400 67.8 65.7 66 55.1 0.00 78.0 23.5 1.3 ENE | 58 3.6 269 145 2.0 80.5 3.7
9/27/21 - 1300 66.3 64.5 69 55.0 0.00 77.6 23.5 0.8 N | 7 3.5 270 97 2.3 75.4 3.7
9/27/21 - 1200 64.8 62.9 72 55.0 0.00 77.3 23.5 1.0 E | 86 3.7 271 79 3.1 72.3 3.7
9/27/21 - 1100 63.4 62.0 75 54.8 0.00 80.1 23.5 1.3 SE | 138 4.5 271 56 2.8 70.2 3.7
9/27/21 - 1000 62.4 60.9 78 54.9 0.00 80.2 23.5 1.0 SE | 142 3.6 271 36 2.4 68.9 3.7
9/27/21 - 0900 61.2 59.8 83 55.4 0.00 80.2 23.5 0.8 ESE | 111 3.0 272 19 2.2 66.2 3.7
9/27/21 - 0800 60.1 59.2 86 55.4 0.00 80.3 23.5 0.4 E | 88 2.8 273 1 2.1 62.0 3.7
9/27/21 - 0700 59.6 59.1 86 55.3 0.00 80.2 23.6 1.1 SE | 138 3.9 268 -8 2.2 60.8 3.7
9/27/21 - 0600 59.8 59.3 86 55.1 0.00 80.6 23.6 0.8 SE | 124 3.6 260 -10 2.0 61.3 3.7
9/27/21 - 0500 59.7 59.3 84 54.7 0.00 80.8 23.6 1.0 SSE | 159 3.7 271 -12 1.9 62.7 3.7
9/27/21 - 0400 60.4 59.4 83 54.9 0.00 80.8 23.6 1.0 E | 97 4.3 273 -12 2.3 64.3 3.7
9/27/21 - 0300 60.8 59.9 82 55.1 0.00 81.2 23.6 0.9 NE | 46 3.2 272 -12 2.2 64.6 3.7
9/27/21 - 0200 61.1 60.4 82 55.2 0.00 81.2 23.7 0.9 NNE | 26 2.8 272 -12 1.3 64.7 3.7
9/27/21 - 0100 61.3 60.7 81 55.0 0.00 81.2 23.7 1.0 ENE | 78 3.3 271 -13 2.3 64.7 3.7
9/27/21 - 0000 61.0 60.4 81 54.8 0.00 81.5 23.7 0.8 ESE | 112 2.5 271 -13 1.4 64.2 3.7
9/26/21 - 2300 60.6 59.1 80 53.7 0.00 81.5 23.7 0.7 SSE | 163 2.7 271 -23 1.9 61.3 3.7
9/26/21 - 2200 62.0 59.4 78 53.7 0.00 81.8 23.7 0.7 S | 176 2.5 272 -53 1.5 60.2 3.7
9/26/21 - 2100 63.8 61.8 74 54.4 0.00 80.1 23.7 0.3 ENE | 74 2.8 271 -55 0.7 61.0 3.7
9/26/21 - 2000 66.0 63.7 68 54.4 0.00 81.5 23.7 0.8 SSW | 196 3.6 270 -59 2.7 66.3 3.7
9/26/21 - 1900 69.4 65.8 64 54.7 0.00 82.5 23.7 3.1 SW | 220 7.0 269 -53 5.2 72.9 3.7
9/26/21 - 1800 71.3 69.3 59 55.3 0.00 82.6 23.7 3.3 SW | 214 7.0 268 18 5.1 79.4 3.8
9/26/21 - 1700 77.0 71.3 53 55.7 0.00 82.3 23.7 2.9 S | 186 8.9 267 128 6.0 86.5 3.8
9/26/21 - 1600 78.8 76.5 48 56.6 0.00 82.3 23.7 2.4 NE | 52 6.1 266 301 3.7 89.1 3.8
9/26/21 - 1500 78.6 76.3 48 56.3 0.00 82.4 23.6 2.3 NE | 56 5.3 266 409 3.7 89.0 3.8
9/26/21 - 1400 78.1 74.2 49 55.6 0.00 82.4 23.6 1.6 ENE | 57 5.8 266 472 3.4 89.6 3.8
9/26/21 - 1300 74.4 69.2 56 55.4 0.00 82.9 23.5 1.3 N | 11 4.9 267 490 3.0 89.7 3.7
9/26/21 - 1200 69.8 64.3 68 55.6 0.00 83.0 23.6 1.0 NNE | 19 4.7 267 328 2.3 85.7 3.7
9/26/21 - 1100 64.7 62.4 75 55.4 0.00 82.6 23.7 1.2 E | 84 4.1 270 99 2.6 75.6 3.7
9/26/21 - 1000 63.2 61.5 77 55.2 0.00 82.3 23.7 0.7 E | 89 2.8 271 52 1.7 70.3 3.7
9/26/21 - 0900 61.6 60.3 81 55.0 0.00 81.8 23.7 0.9 S | 190 3.3 271 32 2.6 67.6 3.7
9/26/21 - 0800 60.5 59.8 82 54.7 0.00 81.7 23.7 1.2 SSW | 209 3.9 271 5 3.3 64.3 3.7
9/26/21 - 0700 60.2 59.8 82 54.5 0.00 81.5 23.8 1.0 S | 183 3.7 271 -11 2.8 62.6 3.7
9/26/21 - 0600 60.6 59.9 82 54.7 0.00 81.8 23.8 0.6 ENE | 78 3.6 271 -13 2.2 63.4 3.7
9/26/21 - 0500 60.7 60.0 82 54.8 0.00 81.9 23.8 0.7 N | 9 3.5 271 -13 1.9 64.0 3.7
9/26/21 - 0400 60.4 59.7 81 54.3 0.00 82.0 23.8 0.9 SSE | 162 3.3 271 -13 1.8 64.1 3.7
9/26/21 - 0300 60.4 59.8 83 55.0 0.00 82.3 23.8 0.9 SE | 138 3.4 271 -13 2.8 63.6 3.7
9/26/21 - 0200 60.9 59.9 83 55.0 0.00 82.3 23.9 0.8 ENE | 70 3.0 272 -32 1.8 61.2 3.7
9/26/21 - 0100 62.3 60.8 80 55.4 0.00 82.6 23.9 0.8 NE | 49 2.4 273 -51 2.0 60.8 3.7
9/26/21 - 0000 64.1 62.1 76 55.3 0.00 82.3 23.9 0.9 NE | 55 2.8 271 -53 1.3 62.5 3.7
9/25/21 - 2300 66.8 63.8 70 55.1 0.00 82.7 23.9 1.1 ENE | 75 3.7 270 -54 1.7 65.5 3.7
9/25/21 - 2200 70.6 66.7 59 53.4 0.00 82.7 23.9 0.6 NE | 55 2.1 268 -56 0.9 67.0 3.7
9/25/21 - 2100 72.8 70.4 45 48.9 0.00 82.6 23.9 1.1 SSW | 213 4.2 266 -60 2.9 71.3 3.7
9/25/21 - 2000 76.2 72.6 41 48.8 0.00 82.4 23.9 2.7 SW | 225 5.9 266 -64 4.6 77.3 3.8
9/25/21 - 1900 81.3 76.2 37 50.3 0.00 82.4 23.9 3.2 WSW | 251 8.1 265 -51 5.7 85.9 3.8
9/25/21 - 1800 86.2 81.3 33 51.3 0.00 82.3 23.8 2.4 W | 281 9.3 265 43 6.5 93.1 3.8
9/25/21 - 1700 86.9 84.5 33 53.1 0.00 81.7 23.7 3.4 WSW | 254 9.5 264 188 6.9 99.0 3.8
9/25/21 - 1600 89.4 86.6 29 51.6 0.00 81.2 23.7 2.6 SSE | 151 8.9 264 314 6.1 100.1 3.8
9/25/21 - 1500 88.8 87.2 30 52.4 0.00 80.9 23.6 2.0 NE | 49 6.0 264 409 3.6 100.4 3.8
9/25/21 - 1400 87.6 84.0 34 54.1 0.00 80.3 23.5 2.2 NE | 40 5.5 264 470 3.6 100.1 3.8
9/25/21 - 1300 85.6 82.2 37 54.4 0.00 80.3 23.5 2.3 NE | 35 5.7 264 490 2.8 99.8 3.8
9/25/21 - 1200 82.5 80.1 39 53.8 0.00 80.6 23.5 2.1 NE | 42 4.8 264 462 4.6 96.2 3.8
9/25/21 - 1100 80.1 75.0 44 53.8 0.00 80.4 23.5 1.6 NE | 38 5.3 265 393 3.0 89.9 3.8
9/25/21 - 1000 75.9 71.8 50 53.3 0.00 80.7 23.5 0.9 NNE | 21 4.5 265 257 2.3 80.5 3.7
9/25/21 - 0900 72.4 66.4 56 53.4 0.00 80.9 23.7 0.6 ENE | 59 2.6 266 172 2.0 73.2 3.7
9/25/21 - 0800 66.4 58.3 72 52.6 0.00 81.1 23.7 0.6 WSW | 237 3.5 269 35 2.7 66.4 3.7
9/25/21 - 0700 58.6 57.9 79 51.8 0.00 81.2 23.7 0.5 SSE | 163 1.9 271 -39 1.3 54.5 3.7
9/25/21 - 0600 59.2 58.1 79 52.0 0.00 81.6 23.7 0.3 SSE | 161 1.3 271 -41 0.8 53.4 3.7
9/25/21 - 0500 59.9 58.8 77 52.0 0.00 81.9 23.8 0.3 SSE | 161 1.4 272 -43 0.0 54.5 3.7
9/25/21 - 0400 61.1 59.5 75 52.1 0.00 82.1 23.8 0.2 SSE | 162 1.0 271 -44 0.0 55.8 3.7
9/25/21 - 0300 62.0 60.9 71 52.0 0.00 82.0 23.8 0.7 S | 173 2.7 270 -46 1.4 58.0 3.7
9/25/21 - 0200 64.0 61.6 68 51.8 0.00 82.4 23.8 0.5 S | 171 2.2 269 -49 1.5 59.9 3.7
9/25/21 - 0100 67.0 63.7 59 51.0 0.00 82.4 23.9 0.4 ENE | 75 2.4 268 -53 1.2 63.6 3.7
9/25/21 - 0000 66.4 65.0 50 46.5 0.00 82.5 23.9 0.7 SSE | 159 2.6 266 -50 1.5 61.4 3.7
9/24/21 - 2300 70.9 66.1 44 45.6 0.00 82.7 23.9 0.4 SSW | 206 3.2 266 -52 1.7 65.4 3.7
9/24/21 - 2200 70.4 68.9 41 44.9 0.00 82.4 23.9 0.6 S | 190 3.9 266 -55 2.0 65.5 3.7
9/24/21 - 2100 74.0 70.2 36 44.0 0.00 82.6 23.9 0.9 SSW | 198 3.9 266 -61 2.2 69.3 3.7
9/24/21 - 2000 77.6 73.8 30 42.1 0.00 82.5 23.9 1.8 SSW | 203 4.8 264 -65 3.3 77.1 3.8
9/24/21 - 1900 79.1 77.5 27 41.4 0.00 82.2 23.9 3.2 SW | 227 9.7 264 -32 6.2 83.2 3.8
9/24/21 - 1800 80.3 77.4 31 45.1 0.00 81.9 23.8 2.7 SSE | 160 9.0 264 42 4.6 87.6 3.8
9/24/21 - 1700 90.2 77.9 25 45.4 0.00 83.8 23.7 3.6 SSE | 154 11.8 264 156 9.3 99.8 3.8
9/24/21 - 1600 91.0 88.6 19 42.4 0.00 83.8 23.7 1.8 NE | 48 6.1 263 288 4.8 101.0 3.8
9/24/21 - 1500 89.1 86.7 21 43.9 0.00 84.3 23.7 2.4 NE | 38 5.9 263 385 3.1 102.4 3.8
9/24/21 - 1400 88.2 86.3 28 49.7 0.00 84.4 23.6 2.5 NE | 43 6.9 264 447 5.6 104.6 3.8
9/24/21 - 1300 86.4 83.4 34 53.4 0.00 84.7 23.5 2.1 NE | 46 5.1 264 476 3.4 104.4 3.8
9/24/21 - 1200 83.9 78.7 40 54.9 0.00 84.7 23.5 1.6 NNE | 22 4.5 264 453 3.9 101.7 3.8
9/24/21 - 1100 79.0 74.5 46 54.1 0.00 84.1 23.6 1.2 NNE | 20 4.4 265 384 3.8 93.0 3.8
9/24/21 - 1000 74.6 68.4 53 53.8 0.00 84.2 23.6 0.7 NNE | 16 3.0 266 277 2.1 81.8 3.7
9/24/21 - 0900 68.6 64.2 62 53.8 0.00 84.3 23.7 0.5 NE | 42 2.4 268 143 1.3 71.7 3.7
9/24/21 - 0800 64.4 57.4 79 53.5 0.00 85.0 23.8 0.1 SSE | 157 0.8 271 20 0.0 59.9 3.7
9/24/21 - 0700 57.7 56.6 82 51.8 0.00 84.8 23.8 0.4 SSE | 147 2.0 272 -36 0.0 52.5 3.7
9/24/21 - 0600 58.0 56.8 80 51.1 0.00 84.2 23.8 0.4 SSE | 154 1.5 273 -45 0.8 52.2 3.7
9/24/21 - 0500 58.6 57.7 78 51.5 0.00 83.9 23.9 0.5 S | 180 1.7 273 -46 0.8 52.0 3.7
9/24/21 - 0400 59.8 58.3 77 51.8 0.00 83.1 23.9 0.5 SSE | 165 2.1 272 -48 0.5 52.6 3.7
9/24/21 - 0300 60.6 59.4 76 52.5 0.00 82.9 23.9 0.5 SSE | 158 1.8 271 -49 0.8 53.7 3.7
9/24/21 - 0200 62.0 60.3 74 52.7 0.00 83.0 24.0 0.6 S | 178 1.9 270 -51 0.9 55.2 3.7
9/24/21 - 0100 62.9 61.4 71 53.0 0.00 83.1 24.0 0.2 SSE | 158 1.9 269 -53 0.7 55.4 3.7
9/24/21 - 0000 65.1 62.4 68 53.1 0.00 83.5 24.0 0.2 S | 187 1.3 269 -54 0.0 59.2 3.7
9/23/21 - 2300 68.0 65.0 61 52.9 0.00 83.3 24.0 0.4 E | 92 2.0 268 -60 0.8 63.3 3.7
9/23/21 - 2200 69.7 67.8 49 48.5 0.00 83.7 24.0 0.2 E | 101 2.4 266 -60 1.0 62.9 3.7
9/23/21 - 2100 71.4 69.3 36 42.0 0.00 83.7 24.0 0.2 SSE | 162 1.7 264 -58 0.6 66.0 3.8
9/23/21 - 2000 75.7 71.3 29 39.0 0.00 83.4 24.1 0.6 S | 179 1.9 264 -64 1.2 72.4 3.8
9/23/21 - 1900 82.1 75.6 22 37.2 0.00 83.3 24.0 0.4 E | 98 2.2 263 -63 0.9 85.3 3.8
9/23/21 - 1800 85.9 82.1 21 39.5 0.00 83.3 24.0 1.2 NNE | 14 4.1 263 -4 1.7 90.1 3.8
9/23/21 - 1700 88.2 85.7 21 42.9 0.00 83.0 23.9 1.6 NE | 35 3.7 263 83 2.4 95.1 3.8
9/23/21 - 1600 91.3 87.6 21 44.2 0.00 82.5 23.9 2.0 NE | 44 4.6 263 159 4.8 101.6 3.8
9/23/21 - 1500 91.9 89.6 20 44.3 0.00 82.3 23.8 2.0 ENE | 60 8.7 262 262 9.0 104.2 3.8
9/23/21 - 1400 91.8 90.2 22 47.2 0.00 82.1 23.8 2.8 NE | 47 5.8 262 357 3.5 105.3 3.8
9/23/21 - 1300 91.8 89.2 26 50.7 0.00 81.8 23.7 2.5 ENE | 59 6.6 263 456 3.6 107.8 3.8
9/23/21 - 1200 89.9 86.7 29 51.8 0.00 81.8 23.7 2.1 NE | 50 5.4 263 465 3.6 104.6 3.8
9/23/21 - 1100 86.8 81.7 31 50.6 0.00 81.9 23.7 1.7 NNE | 32 5.0 263 396 2.5 98.9 3.8
9/23/21 - 1000 81.8 78.1 36 50.9 0.00 82.0 23.8 0.8 NNE | 22 3.7 263 301 2.7 86.1 3.7
9/23/21 - 0900 78.0 73.1 42 50.9 0.00 82.4 23.9 0.5 ESE | 117 2.5 264 174 2.0 74.2 3.7
9/23/21 - 0800 73.3 62.2 55 49.9 0.00 82.7 23.9 0.0 E | 97 0.9 267 22 0.0 59.6 3.7
9/23/21 - 0700 63.0 61.4 62 49.0 0.00 82.8 23.9 0.3 SSE | 156 1.7 268 -45 0.2 54.0 3.7
9/23/21 - 0600 64.3 62.3 57 47.8 0.00 82.5 24.0 0.3 S | 172 1.4 267 -47 0.0 56.4 3.7
9/23/21 - 0500 64.9 63.7 56 48.3 0.00 83.3 24.0 0.4 SSE | 156 2.3 266 -50 1.3 58.5 3.7
9/23/21 - 0400 67.3 64.8 55 49.7 0.00 83.2 24.1 0.4 SSE | 159 1.5 266 -51 0.9 59.9 3.7
9/23/21 - 0300 70.0 66.8 48 48.0 0.00 83.6 24.1 0.3 SSE | 168 2.0 266 -50 1.5 62.8 3.7
9/23/21 - 0200 71.4 69.7 34 41.2 0.00 83.8 24.1 0.2 S | 179 1.8 264 -51 1.5 66.8 3.7
9/23/21 - 0100 73.8 70.6 32 40.9 0.00 84.0 24.1 0.4 SE | 130 2.3 264 -50 1.2 69.9 3.7
9/23/21 - 0000 78.0 73.8 25 37.6 0.00 84.2 24.1 1.1 SW | 231 4.6 264 -53 3.2 76.2 3.7
9/22/21 - 2300 78.3 77.5 24 38.2 0.00 83.8 24.1 3.3 WSW | 242 7.5 263 -56 5.6 76.4 3.7
9/22/21 - 2200 78.0 77.3 27 40.8 0.00 84.0 24.1 3.2 SSW | 195 7.5 264 -57 5.0 76.2 3.8
9/22/21 - 2100 81.1 77.7 25 40.3 0.00 83.8 24.1 2.6 SW | 220 6.9 264 -61 4.5 79.8 3.7
9/22/21 - 2000 84.6 80.7 22 39.9 0.00 83.8 24.1 2.7 SW | 215 6.6 263 -67 4.7 84.5 3.8
9/22/21 - 1900 89.2 84.5 23 44.7 0.00 83.6 24.1 1.9 WNW | 288 7.9 263 -56 7.5 93.9 3.8
9/22/21 - 1800 95.1 89.1 22 49.0 0.00 82.9 23.9 2.6 WNW | 292 12.5 262 54 8.8 101.0 3.8
9/22/21 - 1700 96.1 93.9 24 52.1 0.00 82.8 23.9 5.7 WSW | 241 11.1 262 203 7.9 107.5 3.8
9/22/21 - 1600 100.0 96.2 22 52.4 0.00 82.3 23.8 5.9 WSW | 241 11.1 263 320 8.1 111.1 3.8
9/22/21 - 1500 99.7 98.2 22 53.1 0.00 81.7 23.7 6.2 SW | 236 11.9 263 438 10.7 112.0 3.8
9/22/21 - 1400 101.3 98.5 21 53.0 0.00 81.4 23.6 5.8 WSW | 244 13.9 262 491 9.2 118.6 3.8
9/22/21 - 1300 100.1 97.4 22 54.0 0.00 81.2 23.5 4.0 SW | 229 11.6 262 505 8.6 119.6 3.8
9/22/21 - 1200 100.5 95.6 22 52.1 0.00 81.1 23.5 2.3 WSW | 257 7.1 262 474 5.8 118.8 3.8
9/22/21 - 1100 96.1 89.0 22 47.8 0.00 81.1 23.5 1.0 N | 359 6.3 262 408 4.7 109.8 3.8
9/22/21 - 1000 89.3 80.9 28 48.8 0.00 80.9 23.7 0.6 N | 4 3.0 263 313 2.0 95.0 3.7
9/22/21 - 0900 81.0 75.1 36 49.3 0.00 81.6 23.8 0.9 NNE | 24 2.6 264 188 1.3 80.6 3.7
9/22/21 - 0800 75.4 63.7 47 47.7 0.00 81.6 23.8 0.1 NE | 55 1.0 266 32 0.0 64.9 3.7
9/22/21 - 0700 64.4 63.6 53 46.7 0.00 81.9 23.8 0.3 SSE | 162 1.6 267 -38 0.0 59.5 3.7
9/22/21 - 0600 65.2 64.0 52 46.6 0.00 82.2 23.9 0.2 SSE | 165 1.3 266 -41 0.0 59.7 3.7
9/22/21 - 0500 66.7 65.0 50 46.5 0.00 82.1 23.9 0.5 SSE | 154 1.5 266 -44 0.0 59.6 3.7
9/22/21 - 0400 67.2 66.2 46 45.3 0.00 82.5 23.9 0.3 S | 171 1.8 266 -44 0.9 60.2 3.7
9/22/21 - 0300 68.6 67.1 43 44.6 0.00 82.6 23.9 0.3 SSE | 154 1.5 266 -45 0.0 60.7 3.7
9/22/21 - 0200 69.7 68.1 41 44.3 0.00 82.7 23.9 0.4 SSE | 156 1.4 266 -45 0.4 61.4 3.7
9/22/21 - 0100 71.5 69.3 37 42.9 0.00 82.8 23.9 0.3 SSE | 161 1.1 265 -47 0.5 62.7 3.7
9/22/21 - 0000 73.9 71.4 33 41.7 0.00 82.7 23.9 0.4 S | 171 2.6 264 -51 1.9 65.0 3.8
9/21/21 - 2300 79.1 73.7 29 41.2 0.00 82.7 24.0 0.3 SSE | 158 2.7 264 -56 1.6 70.3 3.8
9/21/21 - 2200 81.5 78.5 27 43.2 0.00 82.7 23.9 0.6 S | 186 4.1 264 -65 3.3 75.5 3.8
9/21/21 - 2100 83.7 81.4 32 49.6 0.00 82.4 23.9 3.0 SSW | 210 6.3 264 -69 4.3 77.4 3.7
9/21/21 - 2000 88.7 83.7 29 50.4 0.00 82.3 23.9 1.6 W | 268 5.6 264 -74 3.4 85.6 3.8
9/21/21 - 1900 96.7 88.5 20 45.6 0.00 82.4 23.9 2.3 WSW | 257 6.4 263 -64 5.1 95.6 3.8
9/21/21 - 1800 99.0 96.1 14 41.1 0.00 81.6 23.8 3.2 SSW | 200 7.6 262 51 5.2 101.8 3.8
9/21/21 - 1700 100.5 98.6 14 41.6 0.00 81.4 23.7 3.2 SE | 131 6.9 262 203 4.5 104.1 3.8
9/21/21 - 1600 101.5 99.2 13 41.0 0.00 81.0 23.6 3.2 ESE | 112 9.8 262 336 5.9 107.6 3.8
9/21/21 - 1500 102.2 99.1 13 40.0 0.00 80.5 23.6 4.0 SE | 146 10.6 262 434 7.7 110.4 3.8
9/21/21 - 1400 100.5 98.3 14 42.5 0.00 80.0 23.5 3.9 SSE | 149 10.2 262 494 7.4 113.2 3.8
9/21/21 - 1300 99.2 96.9 14 40.4 0.00 79.8 23.5 3.8 E | 92 9.8 262 510 5.3 112.2 3.8
9/21/21 - 1200 98.1 89.4 21 47.4 0.00 79.5 23.4 1.5 NNE | 32 5.7 262 477 3.2 109.8 3.8
9/21/21 - 1100 89.5 83.0 31 52.2 0.00 79.7 23.5 1.4 NE | 34 4.3 264 413 2.5 98.5 3.8
9/21/21 - 1000 83.2 75.0 46 56.4 0.00 80.0 23.6 1.0 NNE | 30 3.0 266 314 2.3 85.0 3.7
9/21/21 - 0900 76.0 68.2 57 56.4 0.00 80.3 23.7 0.8 NW | 312 3.2 268 183 2.3 71.8 3.7
9/21/21 - 0800 68.2 58.4 77 55.1 0.00 80.5 23.7 0.2 SSW | 207 2.8 272 40 1.7 57.8 3.7
9/21/21 - 0700 59.1 58.2 83 53.4 0.00 80.8 23.7 0.1 SSE | 167 0.9 261 -28 0.0 51.4 3.7
9/21/21 - 0600 59.9 58.6 79 52.8 0.00 80.8 23.8 0.1 SSE | 162 0.9 273 -42 0.0 53.3 3.7
9/21/21 - 0500 60.7 59.3 78 53.1 0.00 81.1 23.7 0.4 SSE | 155 1.5 272 -45 0.6 54.0 3.7
9/21/21 - 0400 61.3 60.5 78 54.2 0.00 80.8 23.8 0.3 SSE | 162 1.2 273 -45 0.1 54.1 3.7
9/21/21 - 0300 62.4 61.0 76 54.1 0.00 81.6 23.8 0.1 SSE | 158 0.8 271 -45 0.0 56.9 3.7
9/21/21 - 0200 63.5 62.2 71 53.6 0.00 81.6 23.9 0.1 SSE | 154 1.7 270 -47 0.0 58.7 3.7
9/21/21 - 0100 64.7 63.2 68 53.2 0.00 82.0 23.9 0.3 SSE | 155 1.3 270 -49 0.6 60.1 3.7
9/21/21 - 0000 66.2 64.5 64 52.6 0.00 82.0 23.9 0.4 SSE | 157 2.0 269 -52 0.9 61.0 3.7
9/20/21 - 2300 67.5 66.0 58 51.5 0.00 81.9 23.9 0.5 SSE | 161 1.4 268 -55 0.8 62.1 3.7
9/20/21 - 2200 70.0 67.2 52 50.4 0.00 82.0 23.9 0.4 S | 174 1.4 267 -58 1.1 63.5 3.7
9/20/21 - 2100 73.1 69.8 45 49.0 0.00 82.0 23.9 0.4 S | 184 1.8 266 -61 0.3 67.3 3.7
9/20/21 - 2000 79.4 73.0 38 48.7 0.00 81.8 23.9 0.3 S | 174 1.8 266 -69 1.1 76.9 3.8
9/20/21 - 1900 85.8 79.4 32 49.5 0.00 81.5 23.8 0.9 ENE | 65 3.0 265 -61 2.1 89.1 3.8
9/20/21 - 1800 90.4 85.7 28 51.0 0.00 80.9 23.8 1.9 NE | 55 5.3 264 44 1.7 98.3 3.8
9/20/21 - 1700 93.5 90.2 21 46.7 0.00 80.8 23.7 2.9 E | 94 7.4 264 191 4.7 104.3 3.8
9/20/21 - 1600 95.3 92.9 17 42.8 0.00 80.1 23.6 3.2 ESE | 112 8.6 263 320 6.3 106.1 3.8
9/20/21 - 1500 94.9 91.3 23 49.0 0.00 79.9 23.6 2.3 ENE | 75 5.8 263 428 3.3 106.8 3.8
9/20/21 - 1400 91.8 88.2 28 51.6 0.00 80.0 23.5 1.7 NE | 51 5.0 263 486 3.1 105.2 3.8
9/20/21 - 1300 88.5 84.1 33 53.8 0.00 79.5 23.5 2.0 NE | 49 5.9 264 498 4.1 104.5 3.8
9/20/21 - 1200 84.7 78.3 37 52.2 0.00 76.0 23.5 1.8 NE | 52 5.0 264 463 2.6 99.3 3.8
9/20/21 - 1100 78.4 72.9 47 53.6 0.00 76.2 23.5 1.2 NNE | 33 3.7 266 378 2.9 89.5 3.7
9/20/21 - 1000 72.9 67.8 55 53.2 0.00 79.8 23.6 0.6 N | 4 3.4 266 274 2.2 77.9 3.7
9/20/21 - 0900 68.1 61.4 66 53.5 0.00 79.8 23.7 0.3 NE | 53 1.8 268 157 1.6 68.9 3.7
9/20/21 - 0800 61.5 55.0 86 53.2 0.00 80.2 23.7 0.0 SSE | 151 0.7 276 54 0.0 57.8 3.7
9/20/21 - 0700 55.4 54.4 87 51.2 0.00 80.4 23.7 0.6 S | 183 1.9 299 -5 0.8 50.1 3.7
9/20/21 - 0600 56.1 55.0 87 51.7 0.00 80.7 23.7 0.1 SSE | 154 1.1 289 -8 0.0 50.7 3.7
9/20/21 - 0500 56.6 55.5 86 51.9 0.00 80.7 23.8 0.4 SSE | 158 1.6 278 -11 1.1 50.3 3.7
9/20/21 - 0400 57.1 55.6 85 52.0 0.00 81.2 23.8 0.5 SSE | 167 1.9 271 -16 1.2 49.7 3.7
9/20/21 - 0300 57.8 56.4 84 52.4 0.00 81.4 23.8 0.3 SSE | 162 1.3 261 -28 1.0 51.6 3.7
9/20/21 - 0200 59.3 57.4 83 53.0 0.00 81.5 23.8 0.5 SSE | 164 1.8 259 -43 0.7 53.0 3.7
9/20/21 - 0100 60.6 58.8 80 53.5 0.00 81.6 23.9 0.5 SSE | 166 2.1 271 -52 0.9 54.0 3.7
9/20/21 - 0000 62.1 60.3 77 54.0 0.00 81.9 23.9 0.4 SSE | 167 1.4 272 -54 1.0 56.1 3.7
9/19/21 - 2300 63.8 61.8 74 54.5 0.00 81.2 23.9 0.2 SE | 143 1.5 272 -57 0.8 59.7 3.7
9/19/21 - 2200 66.4 63.7 69 54.8 0.00 81.9 23.9 0.5 ESE | 113 2.4 270 -61 0.8 63.0 3.7
9/19/21 - 2100 68.6 66.1 67 55.8 0.00 81.7 23.9 0.8 ESE | 112 2.3 270 -64 1.1 65.3 3.7
9/19/21 - 2000 72.1 68.6 61 56.0 0.00 81.6 23.9 0.7 E | 90 2.4 268 -70 2.0 71.0 3.8
9/19/21 - 1900 79.7 72.0 50 55.9 0.00 81.0 23.9 1.3 ENE | 69 3.9 267 -51 1.9 82.8 3.8
9/19/21 - 1800 85.4 79.6 36 53.2 0.00 80.8 23.8 2.0 WNW | 297 7.5 266 68 5.6 90.3 3.8
9/19/21 - 1700 85.4 83.5 37 55.2 0.00 80.7 23.7 1.9 ENE | 61 5.2 265 216 4.8 93.2 3.8
9/19/21 - 1600 84.6 83.4 37 55.1 0.00 80.1 23.7 2.4 NE | 52 6.0 266 350 3.0 94.5 3.8
9/19/21 - 1500 85.0 83.3 37 54.8 0.00 80.0 23.6 2.5 ENE | 65 5.7 265 452 3.7 97.1 3.8
9/19/21 - 1400 85.0 81.1 35 52.7 0.00 79.6 23.6 1.9 ENE | 61 4.8 265 509 4.1 99.8 3.8
9/19/21 - 1300 81.9 78.3 39 53.1 0.00 79.5 23.5 1.9 E | 85 6.2 265 531 3.8 99.7 3.8
9/19/21 - 1200 78.3 73.5 45 53.3 0.00 79.6 23.5 1.5 NNE | 19 5.2 266 499 2.9 97.4 3.8
9/19/21 - 1100 73.8 68.6 51 52.5 0.00 79.7 23.5 1.4 NNE | 33 4.2 266 427 4.3 87.2 3.7
9/19/21 - 1000 69.6 63.7 62 53.5 0.00 79.8 23.6 0.9 N | 8 4.1 267 323 4.1 74.4 3.7
9/19/21 - 0900 64.0 59.5 74 53.4 0.00 80.1 23.7 0.7 N | 11 3.2 269 219 2.1 65.2 3.7
9/19/21 - 0800 59.4 51.7 90 51.6 0.00 80.5 23.7 0.6 SSE | 152 1.9 291 56 1.4 54.5 3.7
9/19/21 - 0700 53.3 52.0 90 49.8 0.00 80.5 23.8 0.1 SSE | 154 1.1 340 -5 0.0 44.7 3.7
9/19/21 - 0600 53.3 52.5 89 49.8 0.00 80.9 23.8 0.1 SSE | 158 0.9 356 -8 0.0 44.7 3.7
9/19/21 - 0500 53.9 52.7 89 50.1 0.00 81.3 23.8 0.3 S | 175 1.5 330 -9 0.0 46.0 3.7
9/19/21 - 0400 54.8 53.1 87 50.4 0.00 81.3 23.9 0.4 SSE | 159 2.4 303 -10 0.5 45.5 3.7
9/19/21 - 0300 54.9 54.1 86 50.3 0.00 81.9 23.9 0.2 SSE | 156 1.0 248 -13 0.0 47.8 3.7
9/19/21 - 0200 55.3 54.4 84 50.0 0.00 81.9 23.9 0.4 SSE | 161 1.9 232 -24 0.7 48.4 3.7
9/19/21 - 0100 56.8 55.0 81 50.4 0.00 82.2 24.0 0.3 SSE | 166 1.6 227 -39 0.0 47.2 3.7
9/19/21 - 0000 58.4 56.2 79 50.7 0.00 82.3 24.0 0.4 S | 174 1.4 247 -58 0.2 49.2 3.7
9/18/21 - 2300 59.9 58.3 75 51.0 0.00 82.2 24.0 0.3 S | 186 1.9 267 -62 0.5 52.4 3.7
9/18/21 - 2200 64.5 59.8 67 51.1 0.00 82.4 24.0 0.6 SW | 222 4.3 269 -68 3.2 62.4 3.7
9/18/21 - 2100 66.8 64.2 61 51.9 0.00 82.3 24.0 2.1 WSW | 244 5.3 268 -74 4.0 65.9 3.7
9/18/21 - 2000 70.7 66.7 56 52.2 0.00 82.2 24.0 3.3 SW | 231 6.8 268 -77 5.0 71.9 3.8
9/18/21 - 1900 77.4 70.6 48 52.9 0.00 82.1 24.0 4.0 SW | 236 8.0 267 -53 6.9 83.3 3.8
9/18/21 - 1800 82.8 77.3 38 52.2 0.00 81.7 23.9 3.4 WSW | 237 12.6 266 65 9.4 89.9 3.8
9/18/21 - 1700 82.8 81.8 32 49.6 0.00 81.1 23.9 1.7 NE | 53 3.8 265 218 2.7 91.9 3.8
9/18/21 - 1600 83.1 81.5 33 50.1 0.00 81.0 23.8 2.2 ENE | 59 6.2 265 356 3.9 93.5 3.8
9/18/21 - 1500 83.3 80.3 35 52.0 0.00 80.7 23.7 1.8 NE | 50 6.4 264 457 3.9 94.6 3.8
9/18/21 - 1400 80.4 77.3 43 54.2 0.00 80.5 23.7 2.3 E | 79 6.1 266 521 4.2 95.9 3.8
9/18/21 - 1300 79.0 73.4 47 55.0 0.00 80.3 23.7 1.7 NNE | 21 5.8 266 537 4.6 97.7 3.8
9/18/21 - 1200 73.5 71.3 54 54.7 0.00 80.2 23.7 1.6 ENE | 57 5.3 266 504 4.8 96.3 3.8
9/18/21 - 1100 71.8 66.7 59 54.1 0.00 80.3 23.7 1.5 NNE | 16 4.7 266 427 4.3 85.3 3.7
9/18/21 - 1000 67.4 63.3 65 53.3 0.00 80.8 23.7 1.1 ENE | 60 3.4 267 272 3.2 75.5 3.7
9/18/21 - 0900 63.9 59.0 73 52.4 0.00 80.8 23.8 1.6 WSW | 258 4.2 270 174 3.3 67.8 3.7
9/18/21 - 0800 59.2 52.2 88 52.1 0.00 81.0 23.9 0.3 S | 188 2.9 335 59 2.0 54.5 3.7
9/18/21 - 0700 53.1 51.9 89 49.6 0.00 81.3 23.9 0.3 S | 187 2.0 344 -5 0.9 45.5 3.7
9/18/21 - 0600 53.6 52.3 88 49.7 0.00 81.5 23.9 0.3 S | 177 2.0 322 -9 0.0 45.5 3.7
9/18/21 - 0500 54.4 53.2 88 50.1 0.00 81.8 24.0 0.2 SSE | 164 1.5 287 -10 0.1 46.5 3.7
9/18/21 - 0400 54.7 54.0 87 50.5 0.00 82.0 24.0 0.3 SSE | 162 1.6 241 -13 0.1 48.1 3.7
9/18/21 - 0300 55.8 54.5 85 50.9 0.00 82.3 24.0 0.5 SSE | 161 1.8 226 -21 0.6 49.5 3.7
9/18/21 - 0200 57.2 55.4 82 50.9 0.00 82.6 24.1 0.3 SSE | 161 1.5 218 -37 0.5 50.1 3.7
9/18/21 - 0100 57.7 56.6 79 50.7 0.00 82.6 24.1 0.3 S | 171 1.6 261 -53 1.3 51.4 3.7
9/18/21 - 0000 59.3 57.4 77 51.3 0.00 83.0 24.1 0.3 S | 172 1.6 273 -56 0.6 51.6 3.7
9/17/21 - 2300 61.4 59.0 73 51.9 0.00 82.9 24.1 0.4 S | 173 1.9 272 -58 0.0 53.0 3.7
9/17/21 - 2200 63.9 61.2 68 51.4 0.00 83.2 24.2 0.2 SSE | 165 1.4 271 -63 0.0 57.2 3.7
9/17/21 - 2100 67.1 63.8 61 51.7 0.00 83.0 24.2 0.6 S | 191 3.8 268 -72 2.5 62.5 3.7
9/17/21 - 2000 71.6 67.0 54 52.0 0.00 82.9 24.2 2.5 SW | 225 6.0 268 -79 3.8 67.5 3.8
9/17/21 - 1900 78.1 71.4 37 46.3 0.00 82.7 24.1 2.4 S | 185 6.4 266 -61 4.2 79.4 3.8
9/17/21 - 1800 80.3 77.6 31 45.6 0.00 82.5 24.1 3.0 SE | 134 7.5 264 69 4.4 84.9 3.8
9/17/21 - 1700 83.6 80.1 24 41.4 0.00 81.8 24.1 2.8 E | 88 7.9 264 224 4.8 92.3 3.8
9/17/21 - 1600 83.9 81.9 33 50.6 0.00 81.9 24.0 2.2 NE | 55 6.2 264 354 3.0 93.9 3.8
9/17/21 - 1500 82.7 79.5 38 52.8 0.00 81.4 23.9 1.9 NE | 54 5.6 265 449 4.2 94.1 3.8
9/17/21 - 1400 80.0 76.5 42 53.7 0.00 81.4 23.9 1.8 NE | 52 5.3 266 514 4.4 95.4 3.8
9/17/21 - 1300 77.3 71.6 48 54.2 0.00 81.0 23.9 1.3 NNW | 341 5.5 266 534 5.7 95.8 3.8
9/17/21 - 1200 73.0 66.8 56 54.0 0.00 81.3 23.9 1.5 NNE | 28 4.4 266 499 3.1 95.0 3.8
9/17/21 - 1100 68.5 62.1 67 53.6 0.00 81.6 23.9 1.4 ENE | 65 4.3 267 319 3.3 83.2 3.8
9/17/21 - 1000 62.3 59.1 77 53.5 0.00 81.5 24.0 1.0 ESE | 112 4.0 270 115 2.4 76.4 3.7
9/17/21 - 0900 59.2 57.8 83 53.4 0.00 81.6 24.1 1.5 S | 181 4.7 272 40 3.4 68.1 3.7
9/17/21 - 0800 58.2 56.8 87 53.5 0.00 81.9 24.1 0.8 E | 92 3.9 274 13 2.0 64.1 3.7
9/17/21 - 0700 57.1 56.3 89 53.4 0.00 82.2 24.1 0.7 E | 80 3.3 281 -2 2.5 61.0 3.7
9/17/21 - 0600 56.5 52.4 90 51.3 0.00 82.6 24.2 0.7 SSE | 155 3.8 303 -3 1.4 58.6 3.7
9/17/21 - 0500 53.6 52.3 89 49.8 0.00 82.9 24.2 0.1 SSE | 163 0.9 331 -10 0.0 45.9 3.7
9/17/21 - 0400 54.7 53.0 88 50.5 0.00 82.9 24.2 0.3 SSE | 155 1.0 292 -11 0.0 45.7 3.7
9/17/21 - 0300 55.2 53.4 87 50.4 0.00 83.5 24.3 0.5 S | 173 1.5 241 -14 0.8 46.6 3.7
9/17/21 - 0200 56.1 55.0 84 50.8 0.00 83.6 24.4 0.3 S | 189 1.6 227 -19 0.6 48.4 3.7
9/17/21 - 0100 57.1 55.4 82 51.0 0.00 83.8 24.4 0.4 S | 181 1.1 233 -34 0.8 49.0 3.7
9/17/21 - 0000 58.7 56.9 79 51.2 0.00 83.9 24.4 0.2 S | 170 1.0 251 -54 0.0 51.9 3.7
9/16/21 - 2300 60.9 58.4 73 50.9 0.00 84.0 24.4 0.2 SE | 127 1.3 273 -64 0.0 53.5 3.7
9/16/21 - 2200 63.4 60.7 67 50.9 0.00 84.3 24.4 0.1 SE | 141 1.7 270 -67 0.0 55.9 3.7
9/16/21 - 2100 67.4 63.3 61 51.5 0.00 84.1 24.4 0.5 S | 170 3.0 268 -72 1.7 62.1 3.7
9/16/21 - 2000 71.7 67.3 55 52.4 0.00 81.0 24.4 2.0 SSW | 212 5.6 268 -81 3.8 69.6 3.8
9/16/21 - 1900 78.7 71.6 43 50.8 0.00 80.4 24.4 2.2 S | 176 4.6 266 -56 3.3 79.3 3.8
9/16/21 - 1800 80.8 78.0 33 47.5 0.00 81.0 24.4 2.0 NE | 54 6.0 264 70 2.6 84.5 3.8
9/16/21 - 1700 82.5 80.4 26 43.2 0.00 80.4 24.3 2.5 NE | 55 6.1 264 226 3.0 87.2 3.8
9/16/21 - 1600 82.6 80.9 32 49.4 0.00 80.1 24.2 3.2 ENE | 63 8.1 264 365 4.4 89.7 3.8
9/16/21 - 1500 83.2 82.0 34 51.4 0.00 79.0 24.1 2.7 ENE | 76 6.0 264 461 5.3 92.9 3.8
9/16/21 - 1400 83.4 78.9 37 53.1 0.00 79.1 24.1 2.0 NNE | 22 5.3 264 517 4.1 95.2 3.8
9/16/21 - 1300 80.3 76.2 42 53.8 0.00 79.4 24.1 1.5 N | 351 5.3 265 537 4.3 97.0 3.8
9/16/21 - 1200 76.2 71.8 50 53.2 0.00 78.3 24.1 1.8 NNW | 332 6.2 266 508 5.3 95.1 3.8
9/16/21 - 1100 73.6 67.2 55 52.7 0.00 80.4 24.1 1.2 NNE | 13 5.2 266 433 4.1 85.1 3.8
9/16/21 - 1000 67.5 62.0 65 52.4 0.00 81.1 24.1 1.4 NE | 50 3.9 266 308 3.6 75.6 3.7
9/16/21 - 0900 62.4 58.5 75 52.3 0.00 82.7 24.2 1.3 ENE | 60 4.8 269 124 3.2 74.0 3.7
9/16/21 - 0800 58.6 56.9 83 52.7 0.00 82.9 24.3 0.5 NE | 36 3.2 272 8 1.4 64.6 3.7
9/16/21 - 0700 57.1 55.3 86 51.7 0.00 83.1 24.3 1.4 SSW | 212 3.8 273 -10 2.9 61.3 3.7
9/16/21 - 0600 56.6 55.7 88 52.6 0.00 83.1 24.3 1.5 SSE | 155 4.3 274 -11 2.7 60.7 3.7
9/16/21 - 0500 56.8 56.3 88 53.1 0.00 83.6 24.4 0.8 E | 96 2.8 275 -8 1.7 60.4 3.7
9/16/21 - 0400 56.7 55.0 88 52.8 0.00 83.7 24.4 0.9 E | 79 3.3 271 -6 1.9 59.3 3.7
9/16/21 - 0300 56.1 55.0 85 51.1 0.00 84.1 24.5 0.1 SE | 129 1.3 250 -22 0.0 48.9 3.7
9/16/21 - 0200 57.8 55.9 82 51.4 0.00 84.3 24.5 0.3 ESE | 120 3.4 222 -41 1.3 51.6 3.7
9/16/21 - 0100 58.8 57.2 77 50.9 0.00 84.5 24.5 0.2 SE | 131 2.5 250 -60 0.6 50.9 3.7
9/16/21 - 0000 60.5 58.3 70 49.8 0.00 84.8 24.6 0.2 SSE | 167 1.5 271 -65 0.3 52.3 3.7
9/15/21 - 2300 62.8 60.4 64 49.5 0.00 84.8 24.6 0.4 S | 171 1.6 269 -67 1.2 55.1 3.7
9/15/21 - 2200 66.8 62.4 55 47.9 0.00 84.9 24.6 0.2 SE | 130 3.1 268 -72 1.9 60.0 3.7
9/15/21 - 2100 71.5 66.7 48 48.8 0.00 84.9 24.6 0.4 SSE | 157 2.2 266 -78 1.5 65.4 3.8
9/15/21 - 2000 76.1 71.4 43 49.5 0.00 84.7 24.6 1.6 SW | 218 5.1 266 -84 4.1 74.0 3.8
9/15/21 - 1900 82.1 76.2 32 46.1 0.00 84.3 24.6 3.3 SSW | 201 7.9 264 -57 5.1 84.7 3.8
9/15/21 - 1800 88.7 82.0 17 35.1 0.00 84.2 24.5 3.7 S | 185 7.5 263 77 5.8 92.5 3.8
9/15/21 - 1700 90.5 88.5 17 38.9 0.00 83.9 24.4 2.2 SE | 129 7.5 262 226 5.9 94.1 3.8
9/15/21 - 1600 90.5 89.1 15 36.5 0.00 83.7 24.3 2.4 ENE | 61 5.2 262 357 3.3 96.6 3.8
9/15/21 - 1500 90.4 88.1 22 45.0 0.00 83.3 24.2 2.1 NE | 36 6.8 262 456 2.9 99.3 3.8
9/15/21 - 1400 89.1 83.6 28 49.8 0.00 82.3 24.2 1.6 NE | 40 5.8 263 517 4.9 103.2 3.8
9/15/21 - 1300 86.2 80.3 35 53.0 0.00 82.6 24.1 1.3 NE | 35 6.7 264 538 6.4 105.6 3.8
9/15/21 - 1200 80.9 74.7 43 53.3 0.00 81.2 24.1 1.6 NNE | 24 4.6 264 507 2.7 103.4 3.8
9/15/21 - 1100 75.0 68.2 52 53.8 0.00 81.9 24.2 1.4 NNE | 29 4.1 265 439 2.1 89.7 3.8
9/15/21 - 1000 68.5 62.6 68 55.0 0.00 82.9 24.3 1.2 ESE | 122 4.2 266 326 3.1 76.9 3.7
9/15/21 - 0900 62.6 58.2 86 55.5 0.00 83.1 24.3 0.9 S | 172 2.9 269 114 3.1 73.1 3.7
9/15/21 - 0800 58.6 58.0 89 55.1 0.00 81.8 24.4 1.1 E | 96 4.5 274 17 2.7 64.8 3.7
9/15/21 - 0700 58.6 57.3 89 54.8 0.00 83.1 24.4 0.7 ENE | 75 2.8 272 -2 1.5 61.3 3.7
9/15/21 - 0600 57.4 53.5 87 51.4 0.00 82.2 24.5 0.5 SE | 124 2.6 264 -8 1.1 56.7 3.7
9/15/21 - 0500 56.1 54.3 86 51.0 0.00 81.8 24.5 0.2 SSE | 155 1.1 276 -15 0.0 46.0 3.7
9/15/21 - 0400 56.9 56.0 83 51.3 0.00 81.1 24.5 0.2 SSE | 160 1.0 234 -28 0.0 47.1 3.7
9/15/21 - 0300 58.3 56.5 79 50.7 0.00 81.4 24.6 0.3 SSE | 152 1.1 252 -50 0.0